Terminal Aerodrome Forecast
Issued by NWS Sioux Falls, SD

Home | Current Version | Previous Version | Text Only | Print | Product List | Glossary On
Versions: 1 2 3 4 5 6 7 8 9 10 11 12 13 14 15 16 17 18 19 20
000
FTUS43 KFSD 011739
TAFFSD
TAF
KFSD 011739Z 0118/0218 12008KT P6SM BKN100
     FM020400 11008KT P6SM BKN060
      TEMPO 0209/0211 -SHRA
     FM021500 10008KT P6SM OVC035=

USA.gov is the U.S. government's official web portal to all federal, state and local government web resources and services.